sensor_id;sensor_type;location;lat;lon;timestamp;P1;durP1;ratioP1;P2;durP2;ratioP2
8488;SDS011;4281;45.772;12.852;2023-10-19T00:02:07;15.63;;;14.23;;
8488;SDS011;4281;45.772;12.852;2023-10-19T00:04:35;15.33;;;13.83;;
8488;SDS011;4281;45.772;12.852;2023-10-19T00:07:03;15.47;;;13.97;;
8488;SDS011;4281;45.772;12.852;2023-10-19T00:09:31;16.53;;;14.93;;
8488;SDS011;4281;45.772;12.852;2023-10-19T00:12:04;16.63;;;15.03;;
8488;SDS011;4281;45.772;12.852;2023-10-19T00:14:35;15.33;;;13.87;;
8488;SDS011;4281;45.772;12.852;2023-10-19T00:17:02;15.53;;;14.00;;
8488;SDS011;4281;45.772;12.852;2023-10-19T00:19:34;15.37;;;13.80;;
8488;SDS011;4281;45.772;12.852;2023-10-19T00:22:06;14.90;;;13.50;;
8488;SDS011;4281;45.772;12.852;2023-10-19T00:24:42;16.00;;;14.40;;
8488;SDS011;4281;45.772;12.852;2023-10-19T00:27:11;14.43;;;13.10;;
8488;SDS011;4281;45.772;12.852;2023-10-19T00:29:42;14.07;;;12.77;;
8488;SDS011;4281;45.772;12.852;2023-10-19T00:32:16;14.13;;;12.83;;
8488;SDS011;4281;45.772;12.852;2023-10-19T00:34:47;14.73;;;13.30;;
8488;SDS011;4281;45.772;12.852;2023-10-19T00:37:19;14.40;;;13.00;;
8488;SDS011;4281;45.772;12.852;2023-10-19T00:39:53;14.30;;;13.00;;
8488;SDS011;4281;45.772;12.852;2023-10-19T00:42:22;15.17;;;13.77;;
8488;SDS011;4281;45.772;12.852;2023-10-19T00:44:53;14.53;;;13.13;;
8488;SDS011;4281;45.772;12.852;2023-10-19T00:47:28;14.97;;;13.40;;
8488;SDS011;4281;45.772;12.852;2023-10-19T00:50:08;14.80;;;13.40;;
8488;SDS011;4281;45.772;12.852;2023-10-19T00:52:42;14.30;;;12.90;;
8488;SDS011;4281;45.772;12.852;2023-10-19T00:55:16;13.43;;;12.23;;
8488;SDS011;4281;45.772;12.852;2023-10-19T00:57:47;13.20;;;12.00;;
8488;SDS011;4281;45.772;12.852;2023-10-19T01:00:16;14.20;;;12.80;;
8488;SDS011;4281;45.772;12.852;2023-10-19T01:02:57;14.40;;;13.10;;
8488;SDS011;4281;45.772;12.852;2023-10-19T01:05:32;14.50;;;13.10;;
8488;SDS011;4281;45.772;12.852;2023-10-19T01:08:02;14.87;;;13.37;;
8488;SDS011;4281;45.772;12.852;2023-10-19T01:10:41;14.93;;;13.53;;
8488;SDS011;4281;45.772;12.852;2023-10-19T01:13:12;13.83;;;12.50;;
8488;SDS011;4281;45.772;12.852;2023-10-19T01:15:43;14.43;;;13.10;;
8488;SDS011;4281;45.772;12.852;2023-10-19T01:18:15;14.13;;;12.83;;
8488;SDS011;4281;45.772;12.852;2023-10-19T01:20:45;13.93;;;12.53;;
8488;SDS011;4281;45.772;12.852;2023-10-19T01:23:19;13.43;;;12.23;;
8488;SDS011;4281;45.772;12.852;2023-10-19T01:25:52;13.80;;;12.43;;
8488;SDS011;4281;45.772;12.852;2023-10-19T01:28:32;14.00;;;12.70;;
8488;SDS011;4281;45.772;12.852;2023-10-19T01:31:11;13.67;;;12.37;;
8488;SDS011;4281;45.772;12.852;2023-10-19T01:33:49;13.73;;;12.50;;
8488;SDS011;4281;45.772;12.852;2023-10-19T01:36:17;14.00;;;12.60;;
8488;SDS011;4281;45.772;12.852;2023-10-19T01:38:56;13.77;;;12.40;;
8488;SDS011;4281;45.772;12.852;2023-10-19T01:41:27;14.00;;;12.63;;
8488;SDS011;4281;45.772;12.852;2023-10-19T01:43:57;13.93;;;12.63;;
8488;SDS011;4281;45.772;12.852;2023-10-19T01:46:31;13.57;;;12.30;;
8488;SDS011;4281;45.772;12.852;2023-10-19T01:49:03;13.47;;;12.27;;
8488;SDS011;4281;45.772;12.852;2023-10-19T01:51:31;13.47;;;12.17;;
8488;SDS011;4281;45.772;12.852;2023-10-19T01:54:06;13.70;;;12.27;;
8488;SDS011;4281;45.772;12.852;2023-10-19T01:56:35;12.60;;;11.40;;
8488;SDS011;4281;45.772;12.852;2023-10-19T01:59:06;13.77;;;12.37;;
8488;SDS011;4281;45.772;12.852;2023-10-19T02:01:34;12.87;;;11.67;;
8488;SDS011;4281;45.772;12.852;2023-10-19T02:04:05;13.03;;;11.73;;
8488;SDS011;4281;45.772;12.852;2023-10-19T02:06:35;14.17;;;12.83;;
8488;SDS011;4281;45.772;12.852;2023-10-19T02:09:06;12.63;;;11.20;;
8488;SDS011;4281;45.772;12.852;2023-10-19T02:11:44;13.03;;;11.83;;
8488;SDS011;4281;45.772;12.852;2023-10-19T02:14:14;13.20;;;11.93;;
8488;SDS011;4281;45.772;12.852;2023-10-19T02:16:41;13.53;;;12.13;;
8488;SDS011;4281;45.772;12.852;2023-10-19T02:19:10;12.90;;;11.70;;
8488;SDS011;4281;45.772;12.852;2023-10-19T02:21:37;12.73;;;11.63;;
8488;SDS011;4281;45.772;12.852;2023-10-19T02:24:08;12.50;;;11.30;;
8488;SDS011;4281;45.772;12.852;2023-10-19T02:26:40;12.60;;;11.30;;
8488;SDS011;4281;45.772;12.852;2023-10-19T02:29:09;12.03;;;10.83;;
8488;SDS011;4281;45.772;12.852;2023-10-19T02:31:36;12.00;;;10.90;;
8488;SDS011;4281;45.772;12.852;2023-10-19T02:34:06;12.03;;;10.93;;
8488;SDS011;4281;45.772;12.852;2023-10-19T02:36:35;11.40;;;10.40;;
8488;SDS011;4281;45.772;12.852;2023-10-19T02:39:04;12.27;;;11.07;;
8488;SDS011;4281;45.772;12.852;2023-10-19T02:41:35;12.00;;;10.90;;
8488;SDS011;4281;45.772;12.852;2023-10-19T02:44:04;11.37;;;10.37;;
8488;SDS011;4281;45.772;12.852;2023-10-19T02:46:36;11.60;;;10.50;;
8488;SDS011;4281;45.772;12.852;2023-10-19T02:49:08;11.20;;;10.20;;
8488;SDS011;4281;45.772;12.852;2023-10-19T02:51:38;10.10;;;9.20;;
8488;SDS011;4281;45.772;12.852;2023-10-19T02:54:07;10.60;;;9.63;;
8488;SDS011;4281;45.772;12.852;2023-10-19T02:56:37;10.47;;;9.50;;
8488;SDS011;4281;45.772;12.852;2023-10-19T02:59:05;10.47;;;9.57;;
8488;SDS011;4281;45.772;12.852;2023-10-19T03:01:32;11.10;;;10.10;;
8488;SDS011;4281;45.772;12.852;2023-10-19T03:04:01;10.87;;;9.97;;
8488;SDS011;4281;45.772;12.852;2023-10-19T03:06:31;12.03;;;10.37;;
8488;SDS011;4281;45.772;12.852;2023-10-19T03:08:59;10.67;;;9.77;;
8488;SDS011;4281;45.772;12.852;2023-10-19T03:11:41;11.20;;;10.20;;
8488;SDS011;4281;45.772;12.852;2023-10-19T03:14:08;11.60;;;10.57;;
8488;SDS011;4281;45.772;12.852;2023-10-19T03:16:36;10.97;;;9.97;;
8488;SDS011;4281;45.772;12.852;2023-10-19T03:19:03;10.70;;;9.70;;
8488;SDS011;4281;45.772;12.852;2023-10-19T03:21:34;10.67;;;9.67;;
8488;SDS011;4281;45.772;12.852;2023-10-19T03:24:09;10.00;;;9.10;;
8488;SDS011;4281;45.772;12.852;2023-10-19T03:26:39;10.10;;;9.20;;
8488;SDS011;4281;45.772;12.852;2023-10-19T03:29:10;10.37;;;9.37;;
8488;SDS011;4281;45.772;12.852;2023-10-19T03:31:41;10.03;;;9.13;;
8488;SDS011;4281;45.772;12.852;2023-10-19T03:34:11;9.60;;;8.70;;
8488;SDS011;4281;45.772;12.852;2023-10-19T03:36:40;9.43;;;8.57;;
8488;SDS011;4281;45.772;12.852;2023-10-19T03:39:10;10.40;;;9.33;;
8488;SDS011;4281;45.772;12.852;2023-10-19T03:41:43;9.40;;;8.50;;
8488;SDS011;4281;45.772;12.852;2023-10-19T03:44:12;8.87;;;8.17;;
8488;SDS011;4281;45.772;12.852;2023-10-19T03:46:50;9.43;;;8.53;;
8488;SDS011;4281;45.772;12.852;2023-10-19T03:49:24;9.90;;;8.90;;
8488;SDS011;4281;45.772;12.852;2023-10-19T03:51:57;9.20;;;8.30;;
8488;SDS011;4281;45.772;12.852;2023-10-19T03:54:30;8.07;;;7.27;;
8488;SDS011;4281;45.772;12.852;2023-10-19T03:57:00;8.47;;;7.67;;
8488;SDS011;4281;45.772;12.852;2023-10-19T03:59:32;8.57;;;7.77;;
8488;SDS011;4281;45.772;12.852;2023-10-19T04:02:01;8.77;;;7.97;;
8488;SDS011;4281;45.772;12.852;2023-10-19T04:04:36;7.50;;;6.80;;
8488;SDS011;4281;45.772;12.852;2023-10-19T04:07:05;7.80;;;7.10;;
8488;SDS011;4281;45.772;12.852;2023-10-19T04:09:40;7.40;;;6.70;;
8488;SDS011;4281;45.772;12.852;2023-10-19T04:12:25;7.70;;;7.10;;
8488;SDS011;4281;45.772;12.852;2023-10-19T04:14:55;7.53;;;6.83;;
8488;SDS011;4281;45.772;12.852;2023-10-19T04:17:23;7.33;;;6.73;;
8488;SDS011;4281;45.772;12.852;2023-10-19T04:19:51;7.27;;;6.57;;
8488;SDS011;4281;45.772;12.852;2023-10-19T04:22:21;7.50;;;6.80;;
8488;SDS011;4281;45.772;12.852;2023-10-19T04:24:52;7.10;;;6.50;;
8488;SDS011;4281;45.772;12.852;2023-10-19T04:27:20;7.50;;;6.80;;
8488;SDS011;4281;45.772;12.852;2023-10-19T04:29:51;6.53;;;6.03;;
8488;SDS011;4281;45.772;12.852;2023-10-19T04:32:19;6.70;;;6.17;;
8488;SDS011;4281;45.772;12.852;2023-10-19T04:34:52;7.13;;;6.43;;
8488;SDS011;4281;45.772;12.852;2023-10-19T04:37:20;7.33;;;6.67;;
8488;SDS011;4281;45.772;12.852;2023-10-19T04:39:50;7.13;;;6.43;;
8488;SDS011;4281;45.772;12.852;2023-10-19T04:42:18;6.27;;;5.67;;
8488;SDS011;4281;45.772;12.852;2023-10-19T04:44:50;6.00;;;5.50;;
8488;SDS011;4281;45.772;12.852;2023-10-19T04:47:18;6.30;;;5.70;;
8488;SDS011;4281;45.772;12.852;2023-10-19T04:49:46;5.93;;;5.43;;
8488;SDS011;4281;45.772;12.852;2023-10-19T04:52:15;5.90;;;5.37;;
8488;SDS011;4281;45.772;12.852;2023-10-19T04:54:43;5.40;;;5.00;;
8488;SDS011;4281;45.772;12.852;2023-10-19T04:57:11;5.93;;;5.43;;
8488;SDS011;4281;45.772;12.852;2023-10-19T04:59:39;5.60;;;5.10;;
8488;SDS011;4281;45.772;12.852;2023-10-19T05:02:13;5.47;;;4.97;;
8488;SDS011;4281;45.772;12.852;2023-10-19T05:04:41;5.80;;;5.30;;
8488;SDS011;4281;45.772;12.852;2023-10-19T05:07:09;5.57;;;5.07;;
8488;SDS011;4281;45.772;12.852;2023-10-19T05:09:41;6.00;;;5.50;;
8488;SDS011;4281;45.772;12.852;2023-10-19T05:12:09;5.60;;;5.13;;
8488;SDS011;4281;45.772;12.852;2023-10-19T05:14:37;5.87;;;5.27;;
8488;SDS011;4281;45.772;12.852;2023-10-19T05:17:06;6.07;;;5.50;;
8488;SDS011;4281;45.772;12.852;2023-10-19T05:19:37;4.90;;;4.50;;
8488;SDS011;4281;45.772;12.852;2023-10-19T05:22:06;5.33;;;4.83;;
8488;SDS011;4281;45.772;12.852;2023-10-19T05:24:35;5.27;;;4.87;;
8488;SDS011;4281;45.772;12.852;2023-10-19T05:27:03;5.30;;;4.80;;
8488;SDS011;4281;45.772;12.852;2023-10-19T05:29:33;5.40;;;5.00;;
8488;SDS011;4281;45.772;12.852;2023-10-19T05:32:00;5.30;;;4.90;;
8488;SDS011;4281;45.772;12.852;2023-10-19T05:34:30;5.30;;;4.90;;
8488;SDS011;4281;45.772;12.852;2023-10-19T05:37:00;5.40;;;5.00;;
8488;SDS011;4281;45.772;12.852;2023-10-19T05:39:31;4.90;;;4.50;;
8488;SDS011;4281;45.772;12.852;2023-10-19T05:42:00;5.43;;;5.03;;
8488;SDS011;4281;45.772;12.852;2023-10-19T05:44:28;6.27;;;5.67;;
8488;SDS011;4281;45.772;12.852;2023-10-19T05:46:57;5.40;;;4.90;;
8488;SDS011;4281;45.772;12.852;2023-10-19T05:49:26;5.50;;;5.00;;
8488;SDS011;4281;45.772;12.852;2023-10-19T05:51:55;5.70;;;5.13;;
8488;SDS011;4281;45.772;12.852;2023-10-19T05:54:25;5.60;;;5.10;;
8488;SDS011;4281;45.772;12.852;2023-10-19T05:56:53;6.10;;;5.53;;
8488;SDS011;4281;45.772;12.852;2023-10-19T05:59:21;5.37;;;4.97;;
8488;SDS011;4281;45.772;12.852;2023-10-19T06:01:50;6.03;;;5.53;;
8488;SDS011;4281;45.772;12.852;2023-10-19T06:04:18;5.53;;;5.00;;
8488;SDS011;4281;45.772;12.852;2023-10-19T06:06:47;6.63;;;6.03;;
8488;SDS011;4281;45.772;12.852;2023-10-19T06:09:15;5.90;;;5.40;;
8488;SDS011;4281;45.772;12.852;2023-10-19T06:11:46;6.67;;;6.07;;
8488;SDS011;4281;45.772;12.852;2023-10-19T06:14:16;5.43;;;4.93;;
8488;SDS011;4281;45.772;12.852;2023-10-19T06:16:44;5.40;;;4.90;;
8488;SDS011;4281;45.772;12.852;2023-10-19T06:19:12;5.57;;;5.07;;
8488;SDS011;4281;45.772;12.852;2023-10-19T06:21:40;6.27;;;5.67;;
8488;SDS011;4281;45.772;12.852;2023-10-19T06:24:08;6.00;;;5.50;;
8488;SDS011;4281;45.772;12.852;2023-10-19T06:26:43;7.70;;;6.40;;
8488;SDS011;4281;45.772;12.852;2023-10-19T06:29:12;6.80;;;6.10;;
8488;SDS011;4281;45.772;12.852;2023-10-19T06:31:40;6.27;;;5.77;;
8488;SDS011;4281;45.772;12.852;2023-10-19T06:34:10;6.67;;;6.07;;
8488;SDS011;4281;45.772;12.852;2023-10-19T06:36:38;6.33;;;5.73;;
8488;SDS011;4281;45.772;12.852;2023-10-19T06:39:06;6.40;;;5.73;;
8488;SDS011;4281;45.772;12.852;2023-10-19T06:41:34;5.97;;;5.37;;
8488;SDS011;4281;45.772;12.852;2023-10-19T06:44:02;6.30;;;5.70;;
8488;SDS011;4281;45.772;12.852;2023-10-19T06:46:32;6.10;;;5.60;;
8488;SDS011;4281;45.772;12.852;2023-10-19T06:49:02;6.37;;;5.77;;
8488;SDS011;4281;45.772;12.852;2023-10-19T06:51:30;6.83;;;5.97;;
8488;SDS011;4281;45.772;12.852;2023-10-19T06:53:59;6.60;;;6.00;;
8488;SDS011;4281;45.772;12.852;2023-10-19T06:56:27;7.07;;;6.00;;
8488;SDS011;4281;45.772;12.852;2023-10-19T06:58:57;6.77;;;6.17;;
8488;SDS011;4281;45.772;12.852;2023-10-19T07:01:25;6.20;;;5.70;;
8488;SDS011;4281;45.772;12.852;2023-10-19T07:03:57;6.07;;;5.53;;
8488;SDS011;4281;45.772;12.852;2023-10-19T07:06:25;6.60;;;6.03;;
8488;SDS011;4281;45.772;12.852;2023-10-19T07:08:53;7.27;;;6.57;;
8488;SDS011;4281;45.772;12.852;2023-10-19T07:11:22;7.23;;;6.53;;
8488;SDS011;4281;45.772;12.852;2023-10-19T07:13:50;6.70;;;6.10;;
8488;SDS011;4281;45.772;12.852;2023-10-19T07:16:18;6.83;;;6.23;;
8488;SDS011;4281;45.772;12.852;2023-10-19T07:18:46;6.30;;;5.80;;
8488;SDS011;4281;45.772;12.852;2023-10-19T07:21:16;5.97;;;5.47;;
8488;SDS011;4281;45.772;12.852;2023-10-19T07:23:44;6.20;;;5.67;;
8488;SDS011;4281;45.772;12.852;2023-10-19T07:26:12;5.03;;;4.53;;
8488;SDS011;4281;45.772;12.852;2023-10-19T07:28:40;5.80;;;5.30;;
8488;SDS011;4281;45.772;12.852;2023-10-19T07:31:09;5.30;;;4.90;;
8488;SDS011;4281;45.772;12.852;2023-10-19T07:33:42;5.07;;;4.67;;
8488;SDS011;4281;45.772;12.852;2023-10-19T07:36:12;5.50;;;5.00;;
8488;SDS011;4281;45.772;12.852;2023-10-19T07:38:43;4.70;;;4.30;;
8488;SDS011;4281;45.772;12.852;2023-10-19T07:41:12;4.70;;;4.30;;
8488;SDS011;4281;45.772;12.852;2023-10-19T07:43:40;5.47;;;4.97;;
8488;SDS011;4281;45.772;12.852;2023-10-19T07:46:10;5.23;;;4.73;;
8488;SDS011;4281;45.772;12.852;2023-10-19T07:48:38;5.13;;;4.63;;
8488;SDS011;4281;45.772;12.852;2023-10-19T07:51:08;4.47;;;4.07;;
8488;SDS011;4281;45.772;12.852;2023-10-19T07:53:38;4.53;;;4.13;;
8488;SDS011;4281;45.772;12.852;2023-10-19T07:56:07;3.97;;;3.53;;
8488;SDS011;4281;45.772;12.852;2023-10-19T07:58:35;3.93;;;3.63;;
8488;SDS011;4281;45.772;12.852;2023-10-19T08:01:03;4.10;;;3.70;;
8488;SDS011;4281;45.772;12.852;2023-10-19T08:03:32;4.27;;;3.87;;
8488;SDS011;4281;45.772;12.852;2023-10-19T08:06:01;4.83;;;4.07;;
8488;SDS011;4281;45.772;12.852;2023-10-19T08:08:32;4.57;;;4.17;;
8488;SDS011;4281;45.772;12.852;2023-10-19T08:11:01;4.60;;;4.20;;
8488;SDS011;4281;45.772;12.852;2023-10-19T08:13:31;4.77;;;4.37;;
8488;SDS011;4281;45.772;12.852;2023-10-19T08:15:59;5.93;;;5.40;;
8488;SDS011;4281;45.772;12.852;2023-10-19T08:18:27;5.63;;;5.10;;
8488;SDS011;4281;45.772;12.852;2023-10-19T08:20:57;5.87;;;5.37;;
8488;SDS011;4281;45.772;12.852;2023-10-19T08:23:24;5.57;;;5.07;;
8488;SDS011;4281;45.772;12.852;2023-10-19T08:25:54;5.27;;;4.77;;
8488;SDS011;4281;45.772;12.852;2023-10-19T08:28:23;5.60;;;5.10;;
8488;SDS011;4281;45.772;12.852;2023-10-19T08:30:52;5.53;;;5.00;;
8488;SDS011;4281;45.772;12.852;2023-10-19T08:33:28;6.20;;;5.60;;
8488;SDS011;4281;45.772;12.852;2023-10-19T08:35:59;6.70;;;5.53;;
8488;SDS011;4281;45.772;12.852;2023-10-19T08:38:27;5.47;;;4.97;;
8488;SDS011;4281;45.772;12.852;2023-10-19T08:40:56;5.73;;;5.10;;
8488;SDS011;4281;45.772;12.852;2023-10-19T08:43:25;5.53;;;4.50;;
8488;SDS011;4281;45.772;12.852;2023-10-19T08:45:56;5.30;;;4.80;;
8488;SDS011;4281;45.772;12.852;2023-10-19T08:48:24;5.30;;;4.80;;
8488;SDS011;4281;45.772;12.852;2023-10-19T08:50:52;5.60;;;4.97;;
8488;SDS011;4281;45.772;12.852;2023-10-19T08:53:22;4.53;;;4.13;;
8488;SDS011;4281;45.772;12.852;2023-10-19T08:55:51;5.17;;;4.40;;
8488;SDS011;4281;45.772;12.852;2023-10-19T08:58:21;4.70;;;4.30;;
8488;SDS011;4281;45.772;12.852;2023-10-19T09:00:51;4.80;;;4.30;;
8488;SDS011;4281;45.772;12.852;2023-10-19T09:03:24;4.93;;;4.53;;
8488;SDS011;4281;45.772;12.852;2023-10-19T09:05:53;4.67;;;4.27;;
8488;SDS011;4281;45.772;12.852;2023-10-19T09:08:23;5.03;;;4.03;;
8488;SDS011;4281;45.772;12.852;2023-10-19T09:10:51;4.57;;;4.20;;
8488;SDS011;4281;45.772;12.852;2023-10-19T09:13:21;4.50;;;4.10;;
8488;SDS011;4281;45.772;12.852;2023-10-19T09:15:51;4.37;;;3.97;;
8488;SDS011;4281;45.772;12.852;2023-10-19T09:18:24;4.33;;;3.93;;
8488;SDS011;4281;45.772;12.852;2023-10-19T09:20:55;4.50;;;4.10;;
8488;SDS011;4281;45.772;12.852;2023-10-19T09:23:29;4.63;;;4.23;;
8488;SDS011;4281;45.772;12.852;2023-10-19T09:25:58;4.47;;;4.03;;
8488;SDS011;4281;45.772;12.852;2023-10-19T09:28:29;4.77;;;4.30;;
8488;SDS011;4281;45.772;12.852;2023-10-19T09:31:00;4.70;;;4.30;;
8488;SDS011;4281;45.772;12.852;2023-10-19T09:33:32;5.03;;;4.63;;
8488;SDS011;4281;45.772;12.852;2023-10-19T09:36:02;4.43;;;4.07;;
8488;SDS011;4281;45.772;12.852;2023-10-19T09:38:39;5.13;;;4.73;;
8488;SDS011;4281;45.772;12.852;2023-10-19T09:41:14;5.40;;;4.90;;
8488;SDS011;4281;45.772;12.852;2023-10-19T09:43:44;5.47;;;5.03;;
8488;SDS011;4281;45.772;12.852;2023-10-19T09:46:14;5.33;;;4.93;;
8488;SDS011;4281;45.772;12.852;2023-10-19T09:48:50;5.90;;;5.40;;
8488;SDS011;4281;45.772;12.852;2023-10-19T09:51:19;5.70;;;5.20;;
8488;SDS011;4281;45.772;12.852;2023-10-19T09:53:51;5.97;;;5.37;;
8488;SDS011;4281;45.772;12.852;2023-10-19T09:56:24;5.90;;;5.40;;
8488;SDS011;4281;45.772;12.852;2023-10-19T09:58:57;5.40;;;5.00;;
8488;SDS011;4281;45.772;12.852;2023-10-19T10:04:34;5.40;;;4.90;;
8488;SDS011;4281;45.772;12.852;2023-10-19T10:07:04;5.70;;;5.23;;
8488;SDS011;4281;45.772;12.852;2023-10-19T10:09:34;6.33;;;5.50;;
8488;SDS011;4281;45.772;12.852;2023-10-19T10:12:15;5.40;;;4.90;;
8488;SDS011;4281;45.772;12.852;2023-10-19T10:14:57;6.10;;;5.60;;
8488;SDS011;4281;45.772;12.852;2023-10-19T10:17:28;5.73;;;5.30;;
8488;SDS011;4281;45.772;12.852;2023-10-19T10:23:16;6.00;;;5.40;;
8488;SDS011;4281;45.772;12.852;2023-10-19T10:25:49;5.93;;;5.43;;
8488;SDS011;4281;45.772;12.852;2023-10-19T10:28:17;6.17;;;5.67;;
8488;SDS011;4281;45.772;12.852;2023-10-19T10:33:38;6.37;;;5.77;;
8488;SDS011;4281;45.772;12.852;2023-10-19T10:36:08;6.07;;;5.57;;
8488;SDS011;4281;45.772;12.852;2023-10-19T10:38:37;6.73;;;6.10;;
8488;SDS011;4281;45.772;12.852;2023-10-19T10:41:06;6.67;;;6.07;;
8488;SDS011;4281;45.772;12.852;2023-10-19T10:43:53;6.87;;;6.17;;
8488;SDS011;4281;45.772;12.852;2023-10-19T10:46:22;6.37;;;5.77;;
8488;SDS011;4281;45.772;12.852;2023-10-19T10:48:50;6.33;;;5.50;;
8488;SDS011;4281;45.772;12.852;2023-10-19T10:51:21;6.30;;;5.73;;
8488;SDS011;4281;45.772;12.852;2023-10-19T10:53:50;6.27;;;5.77;;
8488;SDS011;4281;45.772;12.852;2023-10-19T10:56:19;6.20;;;5.60;;
8488;SDS011;4281;45.772;12.852;2023-10-19T10:58:48;6.77;;;6.17;;
8488;SDS011;4281;45.772;12.852;2023-10-19T11:01:27;6.67;;;6.07;;
8488;SDS011;4281;45.772;12.852;2023-10-19T11:04:05;6.97;;;6.37;;
8488;SDS011;4281;45.772;12.852;2023-10-19T11:06:34;6.40;;;5.80;;
8488;SDS011;4281;45.772;12.852;2023-10-19T11:09:13;6.33;;;5.73;;
8488;SDS011;4281;45.772;12.852;2023-10-19T11:11:44;6.53;;;5.93;;
8488;SDS011;4281;45.772;12.852;2023-10-19T11:14:13;6.00;;;5.50;;
8488;SDS011;4281;45.772;12.852;2023-10-19T11:16:41;6.23;;;5.67;;
8488;SDS011;4281;45.772;12.852;2023-10-19T11:19:10;6.03;;;5.53;;
8488;SDS011;4281;45.772;12.852;2023-10-19T11:21:50;6.07;;;5.57;;
8488;SDS011;4281;45.772;12.852;2023-10-19T11:24:24;6.20;;;5.50;;
8488;SDS011;4281;45.772;12.852;2023-10-19T11:26:53;6.00;;;5.50;;
8488;SDS011;4281;45.772;12.852;2023-10-19T11:29:22;6.17;;;5.67;;
8488;SDS011;4281;45.772;12.852;2023-10-19T11:31:56;6.07;;;5.57;;
8488;SDS011;4281;45.772;12.852;2023-10-19T11:34:26;5.97;;;5.47;;
8488;SDS011;4281;45.772;12.852;2023-10-19T11:36:57;6.23;;;5.70;;
8488;SDS011;4281;45.772;12.852;2023-10-19T11:39:26;6.17;;;5.67;;
8488;SDS011;4281;45.772;12.852;2023-10-19T11:41:55;6.07;;;5.47;;
8488;SDS011;4281;45.772;12.852;2023-10-19T11:44:23;5.90;;;5.40;;
8488;SDS011;4281;45.772;12.852;2023-10-19T11:46:51;6.73;;;6.23;;
8488;SDS011;4281;45.772;12.852;2023-10-19T11:49:19;6.40;;;5.90;;
8488;SDS011;4281;45.772;12.852;2023-10-19T11:51:52;6.97;;;6.30;;
8488;SDS011;4281;45.772;12.852;2023-10-19T11:54:21;6.70;;;6.10;;
8488;SDS011;4281;45.772;12.852;2023-10-19T11:56:49;6.40;;;5.90;;
8488;SDS011;4281;45.772;12.852;2023-10-19T11:59:17;6.57;;;5.93;;
8488;SDS011;4281;45.772;12.852;2023-10-19T12:01:45;6.50;;;5.90;;
8488;SDS011;4281;45.772;12.852;2023-10-19T12:04:14;6.20;;;5.17;;
8488;SDS011;4281;45.772;12.852;2023-10-19T12:06:42;5.47;;;5.00;;
8488;SDS011;4281;45.772;12.852;2023-10-19T12:09:12;5.83;;;5.33;;
8488;SDS011;4281;45.772;12.852;2023-10-19T12:11:43;5.50;;;5.00;;
8488;SDS011;4281;45.772;12.852;2023-10-19T12:14:14;6.00;;;5.50;;
8488;SDS011;4281;45.772;12.852;2023-10-19T12:16:42;5.90;;;5.40;;
8488;SDS011;4281;45.772;12.852;2023-10-19T12:19:12;6.00;;;5.40;;
8488;SDS011;4281;45.772;12.852;2023-10-19T12:21:40;5.57;;;5.13;;
8488;SDS011;4281;45.772;12.852;2023-10-19T12:24:08;6.20;;;5.67;;
8488;SDS011;4281;45.772;12.852;2023-10-19T12:26:36;5.83;;;5.33;;
8488;SDS011;4281;45.772;12.852;2023-10-19T12:29:06;5.83;;;5.33;;
8488;SDS011;4281;45.772;12.852;2023-10-19T12:31:37;6.00;;;5.50;;
8488;SDS011;4281;45.772;12.852;2023-10-19T12:34:07;5.60;;;5.10;;
8488;SDS011;4281;45.772;12.852;2023-10-19T12:36:38;5.70;;;5.20;;
8488;SDS011;4281;45.772;12.852;2023-10-19T12:39:07;5.93;;;5.43;;
8488;SDS011;4281;45.772;12.852;2023-10-19T12:41:37;5.43;;;4.93;;
8488;SDS011;4281;45.772;12.852;2023-10-19T12:44:06;5.67;;;5.17;;
8488;SDS011;4281;45.772;12.852;2023-10-19T12:46:35;5.83;;;5.27;;
8488;SDS011;4281;45.772;12.852;2023-10-19T12:49:04;6.00;;;5.50;;
8488;SDS011;4281;45.772;12.852;2023-10-19T12:51:34;6.20;;;5.70;;
8488;SDS011;4281;45.772;12.852;2023-10-19T12:54:02;6.47;;;5.87;;
8488;SDS011;4281;45.772;12.852;2023-10-19T12:56:37;7.30;;;6.60;;
8488;SDS011;4281;45.772;12.852;2023-10-19T12:59:07;5.97;;;5.40;;
8488;SDS011;4281;45.772;12.852;2023-10-19T13:01:35;6.00;;;5.40;;
8488;SDS011;4281;45.772;12.852;2023-10-19T13:04:04;6.70;;;6.10;;
8488;SDS011;4281;45.772;12.852;2023-10-19T13:06:40;6.33;;;5.73;;
8488;SDS011;4281;45.772;12.852;2023-10-19T13:09:08;6.33;;;5.73;;
8488;SDS011;4281;45.772;12.852;2023-10-19T13:11:37;7.07;;;6.37;;
8488;SDS011;4281;45.772;12.852;2023-10-19T13:14:11;7.10;;;6.40;;
8488;SDS011;4281;45.772;12.852;2023-10-19T13:16:39;7.63;;;6.57;;
8488;SDS011;4281;45.772;12.852;2023-10-19T13:19:07;8.00;;;7.20;;
8488;SDS011;4281;45.772;12.852;2023-10-19T13:21:39;8.33;;;6.87;;
8488;SDS011;4281;45.772;12.852;2023-10-19T13:24:08;8.57;;;7.77;;
8488;SDS011;4281;45.772;12.852;2023-10-19T13:26:36;9.23;;;7.90;;
8488;SDS011;4281;45.772;12.852;2023-10-19T13:29:06;10.90;;;9.50;;
8488;SDS011;4281;45.772;12.852;2023-10-19T13:31:36;13.33;;;10.10;;
8488;SDS011;4281;45.772;12.852;2023-10-19T13:34:04;11.80;;;10.60;;
8488;SDS011;4281;45.772;12.852;2023-10-19T13:36:36;12.60;;;10.87;;
8488;SDS011;4281;45.772;12.852;2023-10-19T13:39:05;11.90;;;10.43;;
8488;SDS011;4281;45.772;12.852;2023-10-19T13:41:39;12.90;;;9.87;;
8488;SDS011;4281;45.772;12.852;2023-10-19T13:44:08;10.47;;;9.33;;
8488;SDS011;4281;45.772;12.852;2023-10-19T13:46:37;9.93;;;8.80;;
8488;SDS011;4281;45.772;12.852;2023-10-19T13:49:05;10.10;;;8.97;;
8488;SDS011;4281;45.772;12.852;2023-10-19T13:51:36;10.10;;;9.00;;
8488;SDS011;4281;45.772;12.852;2023-10-19T13:54:05;10.50;;;9.40;;
8488;SDS011;4281;45.772;12.852;2023-10-19T13:56:33;11.80;;;9.10;;
8488;SDS011;4281;45.772;12.852;2023-10-19T13:59:02;13.17;;;11.30;;
8488;SDS011;4281;45.772;12.852;2023-10-19T14:01:32;13.63;;;12.20;;
8488;SDS011;4281;45.772;12.852;2023-10-19T14:04:01;14.57;;;12.27;;
8488;SDS011;4281;45.772;12.852;2023-10-19T14:06:30;13.97;;;12.67;;
8488;SDS011;4281;45.772;12.852;2023-10-19T14:08:58;13.03;;;11.73;;
8488;SDS011;4281;45.772;12.852;2023-10-19T14:11:25;13.17;;;11.87;;
8488;SDS011;4281;45.772;12.852;2023-10-19T14:13:53;14.07;;;12.77;;
8488;SDS011;4281;45.772;12.852;2023-10-19T14:16:21;13.33;;;12.03;;
8488;SDS011;4281;45.772;12.852;2023-10-19T14:18:52;11.50;;;10.43;;
8488;SDS011;4281;45.772;12.852;2023-10-19T14:21:21;10.43;;;9.43;;
8488;SDS011;4281;45.772;12.852;2023-10-19T14:23:53;8.80;;;7.90;;
8488;SDS011;4281;45.772;12.852;2023-10-19T14:26:20;8.23;;;7.43;;
8488;SDS011;4281;45.772;12.852;2023-10-19T14:28:48;7.53;;;6.90;;
8488;SDS011;4281;45.772;12.852;2023-10-19T14:31:17;7.47;;;6.77;;
8488;SDS011;4281;45.772;12.852;2023-10-19T14:33:45;6.83;;;6.23;;
8488;SDS011;4281;45.772;12.852;2023-10-19T14:36:13;7.23;;;6.63;;
8488;SDS011;4281;45.772;12.852;2023-10-19T14:38:42;7.03;;;6.33;;
8488;SDS011;4281;45.772;12.852;2023-10-19T14:41:12;7.50;;;6.80;;
8488;SDS011;4281;45.772;12.852;2023-10-19T14:43:41;7.20;;;6.50;;
8488;SDS011;4281;45.772;12.852;2023-10-19T14:46:09;7.60;;;6.90;;
8488;SDS011;4281;45.772;12.852;2023-10-19T14:48:37;7.70;;;7.00;;
8488;SDS011;4281;45.772;12.852;2023-10-19T14:51:05;8.20;;;7.40;;
8488;SDS011;4281;45.772;12.852;2023-10-19T14:53:33;8.73;;;7.93;;
8488;SDS011;4281;45.772;12.852;2023-10-19T14:56:03;9.43;;;8.50;;
8488;SDS011;4281;45.772;12.852;2023-10-19T14:58:32;8.40;;;7.70;;
8488;SDS011;4281;45.772;12.852;2023-10-19T15:01:00;8.27;;;7.57;;
8488;SDS011;4281;45.772;12.852;2023-10-19T15:03:28;9.30;;;8.40;;
8488;SDS011;4281;45.772;12.852;2023-10-19T15:05:56;8.73;;;7.97;;
8488;SDS011;4281;45.772;12.852;2023-10-19T15:08:26;8.03;;;7.33;;
8488;SDS011;4281;45.772;12.852;2023-10-19T15:10:57;8.20;;;7.43;;
8488;SDS011;4281;45.772;12.852;2023-10-19T15:13:27;7.70;;;7.00;;
8488;SDS011;4281;45.772;12.852;2023-10-19T15:15:56;7.77;;;7.10;;
8488;SDS011;4281;45.772;12.852;2023-10-19T15:18:24;7.93;;;7.23;;
8488;SDS011;4281;45.772;12.852;2023-10-19T15:20:52;7.90;;;7.20;;
8488;SDS011;4281;45.772;12.852;2023-10-19T15:23:20;8.40;;;7.60;;